Hovedside
METAR-TAF:

METAR-TAF

Lufthavner :

Enontekiö lufthavn

Enontekis, Finland

breddegrad: 68-21-52N, lengdegrad: 023-25-39E, høyde over havet: 308 m

Gjeldene værobservasjon

Denne rapporten ble laget for 33 minutter siden, klokken 19:20 UTC
Vind 8 kt fra Sør, skiftende mellom Øst-sørøst og Sørvest
Temperatur 13°C
Luftfuktighet 88%
Trykk 1008 hPa
Sikt 10 km eller mer
Brutte skyer i en høyde av 1400 ft
Overskyet i en høyde av 3600 ft

METAR: EFET 161920Z AUTO 17008KT 110V220 9999 BKN014 OVC036 13/11 Q1008

Tid: 22:53 (19:53 UTC)


TAF: fraværende

Værobservasjoner og værvarsel for over 4000 flyplasser (METAR- og TAF-rapporter).

Tilgjengelige stasjoner er representert av de røde og gule prikkene på kartet.

Hold musepekeren over prikken for å se navnet på stasjonen.

Klikk så for å se værobservasjoner og -varsler.

For å forandre kartet kan du klikke på den grønne knappen med svart kryss for å zoome inn, på den grønne knappen med strek for å zoome ut, eller på de grønne pilene for å se tilstøtende kart.


METAR-TAF: